sensor_id;sensor_type;location;lat;lon;timestamp;pressure;altitude;pressure_sealevel;temperature;humidity
55664;BME280;41540;57.880;12.164;2022-07-25T00:05:37;99517.78;;;16.46;100.00
55664;BME280;41540;57.880;12.164;2022-07-25T00:15:37;99539.28;;;16.59;100.00
55664;BME280;41540;57.880;12.164;2022-07-25T00:25:37;99498.88;;;16.34;100.00
55664;BME280;41540;57.880;12.164;2022-07-25T00:35:38;99515.19;;;16.46;100.00
55664;BME280;41540;57.880;12.164;2022-07-25T00:45:39;99540.16;;;16.57;100.00
55664;BME280;41540;57.880;12.164;2022-07-25T00:55:39;99569.44;;;16.73;100.00
55664;BME280;41540;57.880;12.164;2022-07-25T01:05:40;99531.31;;;16.63;100.00
55664;BME280;41540;57.880;12.164;2022-07-25T01:15:42;99487.63;;;16.68;100.00
55664;BME280;41540;57.880;12.164;2022-07-25T01:25:42;99491.75;;;16.79;100.00
55664;BME280;41540;57.880;12.164;2022-07-25T01:35:44;99455.56;;;16.62;100.00
55664;BME280;41540;57.880;12.164;2022-07-25T01:45:44;99440.75;;;16.61;100.00
55664;BME280;41540;57.880;12.164;2022-07-25T01:55:45;99427.38;;;16.73;100.00
55664;BME280;41540;57.880;12.164;2022-07-25T02:05:45;99262.44;;;15.81;100.00
55664;BME280;41540;57.880;12.164;2022-07-25T02:15:46;99365.13;;;16.53;100.00
55664;BME280;41540;57.880;12.164;2022-07-25T02:25:46;99414.19;;;16.77;100.00
55664;BME280;41540;57.880;12.164;2022-07-25T02:35:47;99394.44;;;16.66;100.00
55664;BME280;41540;57.880;12.164;2022-07-25T02:45:47;99376.34;;;16.58;100.00
55664;BME280;41540;57.880;12.164;2022-07-25T02:55:48;99450.00;;;16.38;100.00
55664;BME280;41540;57.880;12.164;2022-07-25T03:05:48;99482.03;;;16.46;100.00
55664;BME280;41540;57.880;12.164;2022-07-25T03:15:48;99476.19;;;16.36;100.00
55664;BME280;41540;57.880;12.164;2022-07-25T03:25:49;99438.31;;;16.54;100.00
55664;BME280;41540;57.880;12.164;2022-07-25T03:35:49;99421.81;;;16.51;100.00
55664;BME280;41540;57.880;12.164;2022-07-25T03:45:49;99426.88;;;16.93;100.00
55664;BME280;41540;57.880;12.164;2022-07-25T03:55:50;99405.78;;;16.65;100.00
55664;BME280;41540;57.880;12.164;2022-07-25T04:05:50;99345.19;;;16.14;100.00
55664;BME280;41540;57.880;12.164;2022-07-25T04:15:50;99360.75;;;16.19;100.00
55664;BME280;41540;57.880;12.164;2022-07-25T04:25:51;99318.75;;;15.91;100.00
55664;BME280;41540;57.880;12.164;2022-07-25T04:35:51;99416.78;;;16.43;100.00
55664;BME280;41540;57.880;12.164;2022-07-25T04:45:51;99402.13;;;16.37;100.00
55664;BME280;41540;57.880;12.164;2022-07-25T04:55:52;99325.16;;;15.79;100.00
55664;BME280;41540;57.880;12.164;2022-07-25T05:05:53;99363.69;;;16.07;100.00
55664;BME280;41540;57.880;12.164;2022-07-25T05:15:53;99447.72;;;16.26;100.00
55664;BME280;41540;57.880;12.164;2022-07-25T05:25:54;99547.81;;;16.28;100.00
55664;BME280;41540;57.880;12.164;2022-07-25T05:35:54;100572.31;;;16.32;100.00
55664;BME280;41540;57.880;12.164;2022-07-25T05:46:02;100501.72;;;16.34;100.00
55664;BME280;41540;57.880;12.164;2022-07-25T05:56:03;100393.03;;;16.07;100.00
55664;BME280;41540;57.880;12.164;2022-07-25T06:06:04;100381.47;;;16.37;100.00
55664;BME280;41540;57.880;12.164;2022-07-25T06:16:05;100277.06;;;16.20;100.00
55664;BME280;41540;57.880;12.164;2022-07-25T06:26:09;100217.56;;;16.41;100.00
55664;BME280;41540;57.880;12.164;2022-07-25T06:36:09;100163.25;;;16.63;100.00
55664;BME280;41540;57.880;12.164;2022-07-25T06:46:10;100167.81;;;17.12;100.00
55664;BME280;41540;57.880;12.164;2022-07-25T06:56:10;100111.28;;;17.02;100.00
55664;BME280;41540;57.880;12.164;2022-07-25T07:06:10;100063.38;;;17.46;100.00
55664;BME280;41540;57.880;12.164;2022-07-25T07:16:11;100000.94;;;17.71;100.00
55664;BME280;41540;57.880;12.164;2022-07-25T07:26:12;99996.72;;;18.44;100.00
55664;BME280;41540;57.880;12.164;2022-07-25T07:36:12;100008.97;;;18.81;100.00
55664;BME280;41540;57.880;12.164;2022-07-25T07:46:13;100115.22;;;19.69;100.00
55664;BME280;41540;57.880;12.164;2022-07-25T07:56:14;100247.50;;;19.32;100.00
55664;BME280;41540;57.880;12.164;2022-07-25T08:06:15;100333.66;;;20.27;100.00
55664;BME280;41540;57.880;12.164;2022-07-25T08:16:15;100176.28;;;20.43;100.00
55664;BME280;41540;57.880;12.164;2022-07-25T08:26:16;100107.38;;;20.00;100.00
55664;BME280;41540;57.880;12.164;2022-07-25T08:36:16;100108.91;;;20.37;100.00
55664;BME280;41540;57.880;12.164;2022-07-25T08:46:17;100065.41;;;21.35;100.00
55664;BME280;41540;57.880;12.164;2022-07-25T08:56:17;99973.75;;;21.70;100.00
55664;BME280;41540;57.880;12.164;2022-07-25T09:06:19;99993.16;;;19.50;100.00
55664;BME280;41540;57.880;12.164;2022-07-25T09:16:31;100076.16;;;18.88;100.00
55664;BME280;41540;57.880;12.164;2022-07-25T09:26:48;100199.53;;;18.43;100.00
55664;BME280;41540;57.880;12.164;2022-07-25T09:36:53;100206.19;;;18.17;100.00
55664;BME280;41540;57.880;12.164;2022-07-25T09:46:53;100144.75;;;17.87;100.00
55664;BME280;41540;57.880;12.164;2022-07-25T09:56:54;100209.56;;;17.74;100.00
55664;BME280;41540;57.880;12.164;2022-07-25T10:07:11;100182.72;;;17.60;100.00
55664;BME280;41540;57.880;12.164;2022-07-25T10:17:19;100183.56;;;18.11;100.00
55664;BME280;41540;57.880;12.164;2022-07-25T10:27:22;100088.13;;;17.30;100.00
55664;BME280;41540;57.880;12.164;2022-07-25T10:37:27;100184.16;;;17.26;100.00
55664;BME280;41540;57.880;12.164;2022-07-25T10:47:28;100273.63;;;16.94;100.00
55664;BME280;41540;57.880;12.164;2022-07-25T10:57:28;100429.44;;;17.20;100.00
55664;BME280;41540;57.880;12.164;2022-07-25T11:07:29;100395.84;;;16.80;100.00
55664;BME280;41540;57.880;12.164;2022-07-25T11:17:35;100423.72;;;16.82;100.00
55664;BME280;41540;57.880;12.164;2022-07-25T11:27:35;100466.47;;;16.78;100.00
55664;BME280;41540;57.880;12.164;2022-07-25T11:37:37;100312.59;;;16.38;100.00
55664;BME280;41540;57.880;12.164;2022-07-25T11:47:38;100382.94;;;17.40;100.00
55664;BME280;41540;57.880;12.164;2022-07-25T11:57:41;100312.06;;;17.52;100.00
55664;BME280;41540;57.880;12.164;2022-07-25T12:17:43;100305.66;;;17.13;100.00
55664;BME280;41540;57.880;12.164;2022-07-25T12:27:44;100348.91;;;17.40;100.00
55664;BME280;41540;57.880;12.164;2022-07-25T12:37:45;100256.03;;;17.63;100.00
55664;BME280;41540;57.880;12.164;2022-07-25T12:47:47;100177.88;;;17.38;100.00
55664;BME280;41540;57.880;12.164;2022-07-25T12:57:47;100082.25;;;17.17;100.00
55664;BME280;41540;57.880;12.164;2022-07-25T13:07:48;100129.47;;;17.11;100.00
55664;BME280;41540;57.880;12.164;2022-07-25T13:17:49;100110.50;;;16.97;100.00
55664;BME280;41540;57.880;12.164;2022-07-25T13:27:50;100053.75;;;16.99;100.00
55664;BME280;41540;57.880;12.164;2022-07-25T13:37:51;99993.19;;;16.69;100.00
55664;BME280;41540;57.880;12.164;2022-07-25T13:47:52;99940.97;;;16.64;100.00
55664;BME280;41540;57.880;12.164;2022-07-25T13:57:54;99890.16;;;16.79;100.00
55664;BME280;41540;57.880;12.164;2022-07-25T14:07:55;99849.19;;;16.76;100.00
55664;BME280;41540;57.880;12.164;2022-07-25T14:17:55;99602.47;;;15.48;100.00
55664;BME280;41540;57.880;12.164;2022-07-25T14:27:58;99782.59;;;17.35;100.00
55664;BME280;41540;57.880;12.164;2022-07-25T14:37:59;99756.72;;;17.60;100.00
55664;BME280;41540;57.880;12.164;2022-07-25T14:47:59;99724.53;;;17.19;100.00
55664;BME280;41540;57.880;12.164;2022-07-25T14:58:00;99731.13;;;17.36;100.00
55664;BME280;41540;57.880;12.164;2022-07-25T15:08:03;99741.88;;;17.23;100.00
55664;BME280;41540;57.880;12.164;2022-07-25T15:18:03;99738.53;;;17.17;100.00
55664;BME280;41540;57.880;12.164;2022-07-25T15:28:04;99633.47;;;16.55;100.00
55664;BME280;41540;57.880;12.164;2022-07-25T15:38:04;99673.88;;;16.83;100.00
55664;BME280;41540;57.880;12.164;2022-07-25T15:48:06;99685.38;;;17.14;100.00
55664;BME280;41540;57.880;12.164;2022-07-25T15:58:09;99656.41;;;17.58;100.00
55664;BME280;41540;57.880;12.164;2022-07-25T16:08:10;99623.03;;;17.65;100.00
55664;BME280;41540;57.880;12.164;2022-07-25T16:18:10;99585.88;;;17.83;100.00
55664;BME280;41540;57.880;12.164;2022-07-25T16:28:10;99544.81;;;18.15;100.00
55664;BME280;41540;57.880;12.164;2022-07-25T16:38:11;99514.22;;;18.16;100.00
55664;BME280;41540;57.880;12.164;2022-07-25T16:48:11;99414.25;;;17.70;100.00
55664;BME280;41540;57.880;12.164;2022-07-25T16:58:12;99500.94;;;18.50;100.00
55664;BME280;41540;57.880;12.164;2022-07-25T17:08:13;99469.09;;;18.34;100.00
55664;BME280;41540;57.880;12.164;2022-07-25T17:18:13;99385.34;;;17.45;100.00
55664;BME280;41540;57.880;12.164;2022-07-25T17:28:14;99406.00;;;17.82;100.00
55664;BME280;41540;57.880;12.164;2022-07-25T17:38:14;99479.44;;;17.81;100.00
55664;BME280;41540;57.880;12.164;2022-07-25T17:48:15;99216.97;;;16.22;100.00
55664;BME280;41540;57.880;12.164;2022-07-25T17:58:15;99420.44;;;17.38;100.00
55664;BME280;41540;57.880;12.164;2022-07-25T18:08:16;99428.09;;;17.75;100.00
55664;BME280;41540;57.880;12.164;2022-07-25T18:18:16;99372.91;;;17.51;100.00
55664;BME280;41540;57.880;12.164;2022-07-25T18:28:16;99408.28;;;17.35;100.00
55664;BME280;41540;57.880;12.164;2022-07-25T18:38:17;99375.91;;;17.39;100.00
55664;BME280;41540;57.880;12.164;2022-07-25T18:48:17;99443.56;;;17.53;100.00
55664;BME280;41540;57.880;12.164;2022-07-25T18:58:18;99403.97;;;17.01;100.00
55664;BME280;41540;57.880;12.164;2022-07-25T19:08:18;99492.31;;;17.26;100.00
55664;BME280;41540;57.880;12.164;2022-07-25T19:18:18;99541.19;;;17.24;100.00
55664;BME280;41540;57.880;12.164;2022-07-25T19:28:19;99521.56;;;17.07;100.00
55664;BME280;41540;57.880;12.164;2022-07-25T19:38:19;99496.47;;;16.63;100.00
55664;BME280;41540;57.880;12.164;2022-07-25T19:48:19;99572.22;;;16.67;100.00
55664;BME280;41540;57.880;12.164;2022-07-25T19:58:23;99656.00;;;17.03;100.00
55664;BME280;41540;57.880;12.164;2022-07-25T20:08:23;99640.84;;;16.77;100.00
55664;BME280;41540;57.880;12.164;2022-07-25T20:18:23;99780.72;;;17.01;100.00
55664;BME280;41540;57.880;12.164;2022-07-25T20:28:24;99798.03;;;17.08;100.00
55664;BME280;41540;57.880;12.164;2022-07-25T20:38:24;99816.09;;;16.77;100.00
55664;BME280;41540;57.880;12.164;2022-07-25T20:48:27;99801.31;;;16.28;100.00
55664;BME280;41540;57.880;12.164;2022-07-25T20:58:27;99718.16;;;16.02;100.00
55664;BME280;41540;57.880;12.164;2022-07-25T21:08:28;99600.25;;;15.76;100.00
55664;BME280;41540;57.880;12.164;2022-07-25T21:18:28;99519.69;;;15.55;100.00
55664;BME280;41540;57.880;12.164;2022-07-25T21:28:28;99521.75;;;15.37;100.00
55664;BME280;41540;57.880;12.164;2022-07-25T21:38:29;99515.88;;;15.26;100.00
55664;BME280;41540;57.880;12.164;2022-07-25T21:48:29;99497.94;;;15.06;100.00
55664;BME280;41540;57.880;12.164;2022-07-25T21:58:48;99482.34;;;14.52;100.00
55664;BME280;41540;57.880;12.164;2022-07-25T22:08:49;99531.50;;;14.76;100.00
55664;BME280;41540;57.880;12.164;2022-07-25T22:18:49;99494.44;;;14.54;100.00
55664;BME280;41540;57.880;12.164;2022-07-25T22:28:49;99411.75;;;14.11;100.00
55664;BME280;41540;57.880;12.164;2022-07-25T22:38:50;99492.13;;;14.36;100.00
55664;BME280;41540;57.880;12.164;2022-07-25T22:48:50;99503.59;;;14.80;100.00
55664;BME280;41540;57.880;12.164;2022-07-25T22:58:51;99474.31;;;14.67;100.00
55664;BME280;41540;57.880;12.164;2022-07-25T23:08:51;99342.13;;;13.65;100.00
55664;BME280;41540;57.880;12.164;2022-07-25T23:18:52;99485.38;;;14.22;100.00
55664;BME280;41540;57.880;12.164;2022-07-25T23:28:53;99528.16;;;14.67;100.00
55664;BME280;41540;57.880;12.164;2022-07-25T23:38:53;99482.19;;;14.61;100.00
55664;BME280;41540;57.880;12.164;2022-07-25T23:48:54;99509.59;;;14.88;100.00
55664;BME280;41540;57.880;12.164;2022-07-25T23:58:55;99445.16;;;14.40;100.00
